State Hospital, South Carolina
Current Conditions -  °F | °C
As of 10:53 AM on Tuesday 27 Jan 2015 (Local Time) from KCUB Reporting Station
Overcast Overcast  
Wind Chill: 37°   Ceiling: 8000
Heat Index: 42°   Visibility: 10mi
Dew Point: 22°   Wind: 9mph
Humidity: 45%   Direction: 300°WNW
Pressure: 29.91"   Gusts: NA
Location:  33.9841°N, 81.0264°W
Report Text: KCUB 271553Z AUTO 30008KT 10SM OVC080 06/M06 A2991 RMK AO2 SLP127 T00561056
Loading
Personal Weather Stations






























Interactive Weather Map New forecast layout! Learn more

10-Day Weather Forecast

Advertisements
Track Severe Weather on mobile